Terminal Aerodrome Forecast
Issued by NWS Cleveland, OH

Home | Current Version | Previous Version | Graphics & Text | Print | Product List | Glossary On
Versions: 1 2 3 4 5 6 7 8 9 10 11 12 13 14 15 16 17 18 19
677
FTUS41 KCLE 230530
TAFCAK
TAF
KCAK 230530Z 2306/2406 VRB03KT P6SM SCT250
     FM231500 12007KT P6SM SCT250
     FM232100 11007KT P6SM BKN200=

USA.gov is the U.S. government's official web portal to all federal, state and local government web resources and services.